Placitas, New Mexico
Current Conditions -  °F | °C
As of 3:52 AM on Monday 20 Oct 2014 (Local Time) from KABQ Reporting Station
Scattered Clouds Scattered Clouds  
Wind Chill: 50°   Ceiling: Unl
Heat Index: 50°   Visibility: 10mi
Dew Point: 42°   Wind: 6mph
Humidity: 74%   Direction: 250°WSW
Pressure: 30.18"   Gusts: NA
Location:  35.31°N, 106.42°W
Report Text: KABQ 200952Z 25005KT 10SM SCT100 SCT240 10/06 A3018 RMK AO2 SLP172 T01000056
Loading
Personal Weather Stations






























Interactive Weather Map
Tropical Storm Tracking
New forecast layout! Learn more

10-Day Weather Forecast

Advertisements
Track Severe Weather on mobile